createdAt,value
2018-02-20T00:02:11.672Z,38.80
2018-02-20T00:04:39.736Z,38.70
2018-02-20T00:07:07.786Z,38.60
2018-02-20T00:09:35.880Z,38.70
2018-02-20T00:12:03.912Z,38.70
2018-02-20T00:14:31.946Z,38.60
2018-02-20T00:17:00.003Z,38.60
2018-02-20T00:19:28.829Z,38.60
2018-02-20T00:21:56.852Z,38.50
2018-02-20T00:24:24.884Z,38.60
2018-02-20T00:26:52.917Z,38.50
2018-02-20T00:29:20.954Z,38.50
2018-02-20T00:31:48.987Z,38.60
2018-02-20T00:34:17.056Z,38.50
2018-02-20T00:36:45.107Z,38.50
2018-02-20T00:39:13.157Z,38.60
2018-02-20T00:41:41.230Z,38.50
2018-02-20T00:44:09.265Z,38.40
2018-02-20T00:46:37.301Z,38.40
2018-02-20T00:49:05.357Z,38.40
2018-02-20T00:51:33.399Z,38.50
2018-02-20T00:54:01.443Z,38.40
2018-02-20T00:56:29.479Z,38.40
2018-02-20T00:58:57.551Z,38.40
2018-02-20T01:01:25.597Z,38.40
2018-02-20T01:03:53.649Z,38.40
2018-02-20T01:06:21.745Z,38.40
2018-02-20T01:08:49.804Z,38.30
2018-02-20T01:11:17.903Z,38.40
2018-02-20T01:13:45.936Z,38.40
2018-02-20T01:16:14.036Z,38.30
2018-02-20T01:18:42.100Z,38.30
2018-02-20T01:21:10.125Z,38.40
2018-02-20T01:23:38.172Z,38.40
2018-02-20T01:26:06.212Z,38.30
2018-02-20T01:28:34.268Z,38.30
2018-02-20T01:31:03.140Z,38.40
2018-02-20T01:33:31.565Z,38.30
2018-02-20T01:35:59.588Z,38.30
2018-02-20T01:38:27.659Z,38.30
2018-02-20T01:40:55.726Z,38.30
2018-02-20T01:43:23.844Z,38.30
2018-02-20T01:45:51.883Z,38.20
2018-02-20T01:48:19.943Z,38.20
2018-02-20T01:50:47.990Z,38.20
2018-02-20T01:53:16.021Z,38.20
2018-02-20T01:55:44.073Z,38.20
2018-02-20T01:58:12.104Z,38.20
2018-02-20T02:00:40.188Z,38.20
2018-02-20T02:03:08.226Z,38.20
2018-02-20T02:05:36.298Z,38.20
2018-02-20T02:08:04.347Z,38.20
2018-02-20T02:10:32.387Z,38.20
2018-02-20T02:13:00.443Z,38.20
2018-02-20T02:15:28.476Z,38.10
2018-02-20T02:17:56.529Z,38.20
2018-02-20T02:20:24.579Z,38.20
2018-02-20T02:22:52.635Z,38.20
2018-02-20T02:25:20.688Z,38.20
2018-02-20T02:27:48.751Z,38.20
2018-02-20T02:30:16.811Z,38.20
2018-02-20T02:32:44.857Z,38.20
2018-02-20T02:35:12.928Z,38.10
2018-02-20T02:37:40.963Z,38.10
2018-02-20T02:40:08.998Z,38.10
2018-02-20T02:42:37.802Z,38.20
2018-02-20T02:45:05.879Z,38.10
2018-02-20T02:47:33.940Z,38.00
2018-02-20T02:50:01.978Z,38.10
2018-02-20T02:52:30.043Z,38.10
2018-02-20T02:54:58.078Z,38.10
2018-02-20T02:57:26.127Z,38.10
2018-02-20T02:59:54.932Z,38.10
2018-02-20T03:02:22.962Z,38.10
2018-02-20T03:04:50.993Z,38.00
2018-02-20T03:07:19.022Z,38.00
2018-02-20T03:09:47.078Z,38.00
2018-02-20T03:12:15.118Z,38.00
2018-02-20T03:14:43.155Z,38.10
2018-02-20T03:17:11.200Z,38.00
2018-02-20T03:19:39.256Z,38.00
2018-02-20T03:22:07.306Z,38.10
2018-02-20T03:24:35.338Z,38.00
2018-02-20T03:27:03.395Z,38.00
2018-02-20T03:29:31.453Z,38.00
2018-02-20T03:31:59.482Z,38.00
2018-02-20T03:34:27.522Z,38.00
2018-02-20T03:36:55.562Z,38.00
2018-02-20T03:39:23.625Z,38.10
2018-02-20T03:41:51.676Z,38.00
2018-02-20T03:44:19.724Z,38.10
2018-02-20T03:46:48.540Z,38.00
2018-02-20T03:49:16.587Z,38.00
2018-02-20T03:51:44.633Z,38.00
2018-02-20T03:54:13.440Z,37.90
2018-02-20T03:56:41.472Z,38.00
2018-02-20T03:59:09.556Z,37.90
2018-02-20T04:01:37.591Z,38.00
2018-02-20T04:04:05.633Z,37.90
2018-02-20T04:06:34.418Z,37.90
2018-02-20T04:09:02.449Z,37.90
2018-02-20T04:11:30.493Z,37.90
2018-02-20T04:13:58.526Z,37.90
2018-02-20T04:16:26.578Z,37.90
2018-02-20T18:02:00.225Z,38.50
2018-02-20T18:04:28.304Z,38.50
2018-02-20T18:06:56.358Z,38.70
2018-02-20T18:09:24.410Z,38.90
2018-02-20T18:11:52.712Z,39.10
2018-02-20T18:14:20.794Z,39.10
2018-02-20T18:16:48.903Z,39.40
2018-02-20T18:19:17.059Z,39.30
2018-02-20T18:21:45.164Z,39.00
2018-02-20T18:24:13.308Z,39.20
2018-02-20T18:26:41.361Z,39.30
2018-02-20T18:29:09.662Z,39.30
2018-02-20T18:31:37.738Z,39.30
2018-02-20T18:34:05.820Z,39.50
2018-02-20T18:36:33.912Z,40.00
2018-02-20T18:39:02.726Z,40.00
2018-02-20T18:41:30.803Z,39.90
2018-02-20T18:43:58.853Z,39.80
2018-02-20T18:46:26.909Z,39.80
2018-02-20T18:48:54.990Z,39.90
2018-02-20T18:51:23.071Z,39.90
2018-02-20T18:53:51.129Z,39.80
2018-02-20T18:56:19.244Z,39.80
2018-02-20T18:58:47.294Z,39.70
2018-02-20T19:01:15.366Z,39.80
2018-02-20T19:03:43.396Z,39.70
2018-02-20T19:06:11.437Z,39.70
2018-02-20T19:08:39.516Z,39.80
2018-02-20T19:11:08.040Z,39.50
2018-02-20T19:13:36.134Z,39.60
2018-02-20T19:16:04.188Z,39.70
2018-02-20T19:18:32.495Z,40.00
2018-02-20T19:21:00.548Z,40.00
2018-02-20T19:23:28.597Z,40.00
2018-02-20T19:25:56.889Z,40.00
2018-02-20T19:28:24.974Z,40.00
2018-02-20T19:30:53.054Z,40.00
2018-02-20T19:33:21.093Z,40.00
2018-02-20T19:35:49.172Z,40.10
2018-02-20T19:38:17.234Z,40.00
2018-02-20T19:40:45.355Z,40.10
2018-02-20T19:43:13.388Z,40.20
2018-02-20T19:45:41.429Z,40.20
2018-02-20T19:48:09.570Z,40.20
2018-02-20T19:50:37.619Z,40.30
2018-02-20T19:53:05.694Z,40.40
2018-02-20T19:55:34.496Z,40.40
2018-02-20T19:58:02.586Z,40.50
2018-02-20T20:00:30.707Z,40.30
2018-02-20T20:02:58.728Z,40.50
2018-02-20T20:05:27.046Z,40.40
2018-02-20T20:07:55.098Z,40.30
2018-02-20T20:10:23.185Z,40.30
2018-02-20T20:12:51.293Z,40.10
2018-02-20T20:15:19.304Z,40.10
2018-02-20T20:17:47.416Z,40.10
2018-02-20T20:20:15.477Z,40.00
2018-02-20T20:22:43.531Z,40.00
2018-02-20T20:25:11.613Z,40.10
2018-02-20T20:27:39.670Z,40.10
2018-02-20T20:30:07.773Z,40.10
2018-02-20T20:32:35.847Z,40.00
2018-02-20T20:35:03.898Z,39.90
2018-02-20T20:37:31.993Z,39.90
2018-02-20T20:40:00.040Z,39.70
2018-02-20T20:42:28.094Z,39.80
2018-02-20T20:44:56.156Z,39.90
2018-02-20T20:47:24.191Z,39.90
2018-02-20T20:49:52.276Z,39.80
2018-02-20T20:52:21.110Z,39.60
2018-02-20T20:54:49.186Z,39.60
2018-02-20T20:57:17.240Z,39.70
2018-02-20T20:59:45.514Z,39.80
2018-02-20T21:02:13.625Z,39.60
2018-02-20T21:04:41.651Z,39.60
2018-02-20T21:07:09.718Z,39.60
2018-02-20T21:09:37.766Z,39.50
2018-02-20T21:12:05.819Z,39.70
2018-02-20T21:14:33.874Z,39.60
2018-02-20T21:17:01.902Z,39.70
2018-02-20T21:19:29.963Z,39.70
2018-02-20T21:21:58.034Z,39.70
2018-02-20T21:24:26.087Z,39.70
2018-02-20T21:26:54.924Z,39.70
2018-02-20T21:29:23.003Z,39.80
2018-02-20T21:31:51.052Z,39.80
2018-02-20T21:34:19.104Z,39.80
2018-02-20T21:36:47.216Z,39.80
2018-02-20T21:39:16.029Z,39.60
2018-02-20T21:41:44.075Z,39.60
2018-02-20T21:44:12.154Z,39.50
2018-02-20T21:46:40.214Z,39.80
2018-02-20T21:49:08.282Z,39.50
2018-02-20T21:51:36.339Z,39.80
2018-02-20T21:54:05.180Z,40.20
2018-02-20T21:56:33.438Z,40.20
2018-02-20T21:59:01.508Z,40.00
2018-02-20T22:01:29.555Z,39.70
2018-02-20T22:03:57.646Z,39.60
2018-02-20T22:06:25.684Z,39.40
2018-02-20T22:08:53.754Z,39.40
2018-02-20T22:11:21.816Z,39.30
2018-02-20T22:13:49.950Z,39.30
2018-02-20T22:16:18.012Z,39.30
2018-02-20T22:18:46.076Z,39.30
2018-02-20T22:21:14.156Z,39.20
2018-02-20T22:23:42.198Z,39.10
2018-02-20T22:26:10.241Z,39.10
2018-02-20T22:28:38.333Z,39.00
2018-02-20T22:31:06.396Z,39.00
2018-02-20T22:33:35.958Z,38.90
2018-02-20T22:36:04.004Z,38.90
2018-02-20T22:38:32.076Z,38.90
2018-02-20T22:41:00.133Z,39.00
2018-02-20T22:43:28.203Z,39.00
2018-02-20T22:45:56.250Z,38.70
2018-02-20T22:48:24.330Z,38.20
2018-02-20T22:50:53.891Z,37.90
2018-02-20T22:53:22.333Z,37.90
2018-02-20T22:55:50.392Z,37.80
2018-02-20T22:58:19.972Z,37.70
2018-02-20T23:00:48.027Z,37.70
2018-02-20T23:03:16.091Z,37.70
2018-02-20T23:05:44.315Z,37.60
2018-02-20T23:08:12.391Z,37.50
2018-02-20T23:10:40.446Z,37.60
2018-02-20T23:13:08.514Z,37.40
2018-02-20T23:15:36.575Z,37.40
2018-02-20T23:18:04.620Z,37.40
2018-02-20T23:20:32.692Z,37.40
2018-02-20T23:23:00.755Z,37.40
2018-02-20T23:25:28.795Z,37.40
2018-02-20T23:27:57.623Z,37.40
2018-02-20T23:30:25.668Z,37.40
2018-02-20T23:32:53.932Z,37.40
2018-02-20T23:35:22.007Z,37.30
2018-02-20T23:37:51.547Z,37.30
2018-02-20T23:40:19.621Z,37.30
2018-02-20T23:42:47.680Z,37.30
2018-02-20T23:45:15.749Z,37.20
2018-02-20T23:47:43.790Z,37.30
2018-02-20T23:50:11.840Z,37.20
2018-02-20T23:52:39.920Z,37.20
2018-02-20T23:55:07.983Z,37.20
2018-02-20T23:57:36.046Z,37.20
